sensor_id;sensor_type;location;lat;lon;timestamp;P1;durP1;ratioP1;P2;durP2;ratioP2
70270;SDS011;57680;54.292;18.598;2022-12-07T00:01:12;23.33;;;8.05;;
70270;SDS011;57680;54.292;18.598;2022-12-07T00:03:40;25.50;;;8.85;;
70270;SDS011;57680;54.292;18.598;2022-12-07T00:06:07;30.45;;;9.70;;
70270;SDS011;57680;54.292;18.598;2022-12-07T00:08:35;25.73;;;8.63;;
70270;SDS011;57680;54.292;18.598;2022-12-07T00:11:01;26.33;;;8.18;;
70270;SDS011;57680;54.292;18.598;2022-12-07T00:13:28;21.77;;;7.93;;
70270;SDS011;57680;54.292;18.598;2022-12-07T00:15:54;24.73;;;8.55;;
70270;SDS011;57680;54.292;18.598;2022-12-07T00:18:19;24.63;;;8.60;;
70270;SDS011;57680;54.292;18.598;2022-12-07T00:20:45;26.43;;;9.13;;
70270;SDS011;57680;54.292;18.598;2022-12-07T00:23:10;24.43;;;8.47;;
70270;SDS011;57680;54.292;18.598;2022-12-07T00:25:36;23.08;;;7.78;;
70270;SDS011;57680;54.292;18.598;2022-12-07T00:28:01;23.30;;;8.20;;
70270;SDS011;57680;54.292;18.598;2022-12-07T00:30:27;23.23;;;7.63;;
70270;SDS011;57680;54.292;18.598;2022-12-07T00:32:52;19.83;;;8.17;;
70270;SDS011;57680;54.292;18.598;2022-12-07T00:35:17;24.08;;;8.13;;
70270;SDS011;57680;54.292;18.598;2022-12-07T00:37:43;22.03;;;7.17;;
70270;SDS011;57680;54.292;18.598;2022-12-07T00:40:08;23.53;;;8.30;;
70270;SDS011;57680;54.292;18.598;2022-12-07T00:42:34;23.88;;;7.53;;
70270;SDS011;57680;54.292;18.598;2022-12-07T00:45:00;22.20;;;7.53;;
70270;SDS011;57680;54.292;18.598;2022-12-07T00:47:25;19.10;;;7.53;;
70270;SDS011;57680;54.292;18.598;2022-12-07T00:49:51;22.05;;;7.45;;
70270;SDS011;57680;54.292;18.598;2022-12-07T00:52:17;17.77;;;6.97;;
70270;SDS011;57680;54.292;18.598;2022-12-07T00:54:42;19.97;;;7.10;;
70270;SDS011;57680;54.292;18.598;2022-12-07T00:57:07;18.65;;;6.85;;
70270;SDS011;57680;54.292;18.598;2022-12-07T00:59:33;19.83;;;6.77;;
70270;SDS011;57680;54.292;18.598;2022-12-07T01:01:58;22.77;;;7.40;;
70270;SDS011;57680;54.292;18.598;2022-12-07T01:04:24;20.63;;;8.20;;
70270;SDS011;57680;54.292;18.598;2022-12-07T01:06:49;24.02;;;6.72;;
70270;SDS011;57680;54.292;18.598;2022-12-07T01:09:15;18.53;;;6.80;;
70270;SDS011;57680;54.292;18.598;2022-12-07T01:11:40;20.93;;;6.50;;
70270;SDS011;57680;54.292;18.598;2022-12-07T01:14:06;20.75;;;7.05;;
70270;SDS011;57680;54.292;18.598;2022-12-07T01:16:32;22.07;;;7.10;;
70270;SDS011;57680;54.292;18.598;2022-12-07T01:18:58;22.55;;;7.20;;
70270;SDS011;57680;54.292;18.598;2022-12-07T01:21:29;25.33;;;8.30;;
70270;SDS011;57680;54.292;18.598;2022-12-07T01:23:59;23.70;;;8.00;;
70270;SDS011;57680;54.292;18.598;2022-12-07T01:26:25;23.60;;;8.40;;
70270;SDS011;57680;54.292;18.598;2022-12-07T01:28:51;25.15;;;7.75;;
70270;SDS011;57680;54.292;18.598;2022-12-07T01:31:23;22.92;;;8.13;;
70270;SDS011;57680;54.292;18.598;2022-12-07T01:33:51;22.57;;;7.60;;
70270;SDS011;57680;54.292;18.598;2022-12-07T01:36:19;22.70;;;8.07;;
70270;SDS011;57680;54.292;18.598;2022-12-07T01:38:47;22.67;;;8.18;;
70270;SDS011;57680;54.292;18.598;2022-12-07T01:41:16;28.00;;;9.57;;
70270;SDS011;57680;54.292;18.598;2022-12-07T01:46:37;38.67;;;10.53;;
70270;SDS011;57680;54.292;18.598;2022-12-07T01:49:04;31.33;;;10.20;;
70270;SDS011;57680;54.292;18.598;2022-12-07T01:51:33;28.65;;;11.25;;
70270;SDS011;57680;54.292;18.598;2022-12-07T01:53:59;24.55;;;8.80;;
70270;SDS011;57680;54.292;18.598;2022-12-07T01:56:26;25.42;;;8.50;;
70270;SDS011;57680;54.292;18.598;2022-12-07T01:58:54;25.27;;;7.83;;
70270;SDS011;57680;54.292;18.598;2022-12-07T02:01:21;24.98;;;8.40;;
70270;SDS011;57680;54.292;18.598;2022-12-07T02:03:47;21.02;;;7.40;;
70270;SDS011;57680;54.292;18.598;2022-12-07T02:06:20;23.02;;;6.72;;
70270;SDS011;57680;54.292;18.598;2022-12-07T02:08:49;24.90;;;7.88;;
70270;SDS011;57680;54.292;18.598;2022-12-07T02:11:15;23.07;;;6.77;;
70270;SDS011;57680;54.292;18.598;2022-12-07T02:13:41;24.60;;;7.07;;
70270;SDS011;57680;54.292;18.598;2022-12-07T02:19:07;22.00;;;7.63;;
70270;SDS011;57680;54.292;18.598;2022-12-07T02:21:51;23.70;;;7.22;;
70270;SDS011;57680;54.292;18.598;2022-12-07T02:30:11;22.75;;;7.68;;
70270;SDS011;57680;54.292;18.598;2022-12-07T02:32:43;24.57;;;8.13;;
70270;SDS011;57680;54.292;18.598;2022-12-07T02:37:49;23.23;;;6.70;;
70270;SDS011;57680;54.292;18.598;2022-12-07T02:45:40;23.37;;;6.50;;
70270;SDS011;57680;54.292;18.598;2022-12-07T02:48:07;24.85;;;6.93;;
70270;SDS011;57680;54.292;18.598;2022-12-07T02:50:36;22.73;;;6.47;;
70270;SDS011;57680;54.292;18.598;2022-12-07T02:53:02;18.93;;;6.40;;
70270;SDS011;57680;54.292;18.598;2022-12-07T02:55:29;21.40;;;6.40;;
70270;SDS011;57680;54.292;18.598;2022-12-07T02:58:17;19.25;;;6.60;;
70270;SDS011;57680;54.292;18.598;2022-12-07T03:03:58;19.40;;;5.55;;
70270;SDS011;57680;54.292;18.598;2022-12-07T03:06:37;19.85;;;5.65;;
70270;SDS011;57680;54.292;18.598;2022-12-07T03:09:18;18.05;;;5.30;;
70270;SDS011;57680;54.292;18.598;2022-12-07T03:11:51;18.20;;;5.47;;
70270;SDS011;57680;54.292;18.598;2022-12-07T03:14:36;16.40;;;5.17;;
70270;SDS011;57680;54.292;18.598;2022-12-07T03:17:13;22.15;;;5.97;;
70270;SDS011;57680;54.292;18.598;2022-12-07T03:19:43;18.10;;;5.40;;
70270;SDS011;57680;54.292;18.598;2022-12-07T03:22:11;20.50;;;5.70;;
70270;SDS011;57680;54.292;18.598;2022-12-07T03:24:43;19.70;;;5.45;;
70270;SDS011;57680;54.292;18.598;2022-12-07T03:27:34;14.33;;;5.10;;
70270;SDS011;57680;54.292;18.598;2022-12-07T03:30:06;17.98;;;5.28;;
70270;SDS011;57680;54.292;18.598;2022-12-07T03:32:52;16.42;;;4.95;;
70270;SDS011;57680;54.292;18.598;2022-12-07T03:35:34;15.50;;;4.82;;
70270;SDS011;57680;54.292;18.598;2022-12-07T03:38:19;14.90;;;4.63;;
70270;SDS011;57680;54.292;18.598;2022-12-07T03:43:34;13.68;;;4.78;;
70270;SDS011;57680;54.292;18.598;2022-12-07T03:51:50;16.73;;;5.35;;
70270;SDS011;57680;54.292;18.598;2022-12-07T03:54:33;12.63;;;4.20;;
70270;SDS011;57680;54.292;18.598;2022-12-07T03:57:03;12.82;;;4.20;;
70270;SDS011;57680;54.292;18.598;2022-12-07T03:59:30;11.10;;;4.03;;
70270;SDS011;57680;54.292;18.598;2022-12-07T04:01:57;13.03;;;4.23;;
70270;SDS011;57680;54.292;18.598;2022-12-07T04:04:27;11.02;;;3.67;;
70270;SDS011;57680;54.292;18.598;2022-12-07T04:06:53;12.15;;;4.07;;
70270;SDS011;57680;54.292;18.598;2022-12-07T04:09:18;16.00;;;4.60;;
70270;SDS011;57680;54.292;18.598;2022-12-07T04:11:44;13.63;;;4.65;;
70270;SDS011;57680;54.292;18.598;2022-12-07T04:14:10;13.33;;;4.47;;
70270;SDS011;57680;54.292;18.598;2022-12-07T04:16:45;15.57;;;5.07;;
70270;SDS011;57680;54.292;18.598;2022-12-07T04:19:12;14.40;;;4.47;;
70270;SDS011;57680;54.292;18.598;2022-12-07T04:21:38;13.45;;;4.30;;
70270;SDS011;57680;54.292;18.598;2022-12-07T04:24:04;13.80;;;4.43;;
70270;SDS011;57680;54.292;18.598;2022-12-07T04:26:30;11.45;;;4.07;;
70270;SDS011;57680;54.292;18.598;2022-12-07T04:28:55;12.40;;;3.97;;
70270;SDS011;57680;54.292;18.598;2022-12-07T04:31:21;13.47;;;4.47;;
70270;SDS011;57680;54.292;18.598;2022-12-07T04:33:46;11.97;;;3.97;;
70270;SDS011;57680;54.292;18.598;2022-12-07T04:36:11;12.13;;;4.13;;
70270;SDS011;57680;54.292;18.598;2022-12-07T04:38:37;13.27;;;4.10;;
70270;SDS011;57680;54.292;18.598;2022-12-07T04:41:05;11.20;;;3.80;;
70270;SDS011;57680;54.292;18.598;2022-12-07T04:43:32;12.23;;;3.67;;
70270;SDS011;57680;54.292;18.598;2022-12-07T04:45:58;12.73;;;4.10;;
70270;SDS011;57680;54.292;18.598;2022-12-07T04:48:24;9.93;;;3.37;;
70270;SDS011;57680;54.292;18.598;2022-12-07T04:50:49;11.80;;;3.60;;
70270;SDS011;57680;54.292;18.598;2022-12-07T04:53:15;9.83;;;3.07;;
70270;SDS011;57680;54.292;18.598;2022-12-07T04:55:40;10.73;;;3.73;;
70270;SDS011;57680;54.292;18.598;2022-12-07T04:58:06;10.65;;;3.80;;
70270;SDS011;57680;54.292;18.598;2022-12-07T05:00:32;10.87;;;3.77;;
70270;SDS011;57680;54.292;18.598;2022-12-07T05:02:58;11.93;;;4.13;;
70270;SDS011;57680;54.292;18.598;2022-12-07T05:05:23;11.57;;;3.47;;
70270;SDS011;57680;54.292;18.598;2022-12-07T05:07:49;10.38;;;3.72;;
70270;SDS011;57680;54.292;18.598;2022-12-07T05:10:15;10.93;;;3.88;;
70270;SDS011;57680;54.292;18.598;2022-12-07T05:12:41;12.27;;;4.10;;
70270;SDS011;57680;54.292;18.598;2022-12-07T05:15:06;11.52;;;4.10;;
70270;SDS011;57680;54.292;18.598;2022-12-07T05:17:32;12.53;;;4.47;;
70270;SDS011;57680;54.292;18.598;2022-12-07T05:19:57;14.30;;;4.57;;
70270;SDS011;57680;54.292;18.598;2022-12-07T05:22:23;12.52;;;4.63;;
70270;SDS011;57680;54.292;18.598;2022-12-07T05:24:53;12.97;;;4.03;;
70270;SDS011;57680;54.292;18.598;2022-12-07T05:27:21;13.43;;;4.50;;
70270;SDS011;57680;54.292;18.598;2022-12-07T05:29:47;14.57;;;4.68;;
70270;SDS011;57680;54.292;18.598;2022-12-07T05:32:15;13.98;;;4.72;;
70270;SDS011;57680;54.292;18.598;2022-12-07T05:34:41;13.40;;;5.10;;
70270;SDS011;57680;54.292;18.598;2022-12-07T05:37:07;15.77;;;5.45;;
70270;SDS011;57680;54.292;18.598;2022-12-07T05:39:32;13.63;;;4.87;;
70270;SDS011;57680;54.292;18.598;2022-12-07T05:41:57;11.90;;;4.37;;
70270;SDS011;57680;54.292;18.598;2022-12-07T05:44:42;12.03;;;4.20;;
70270;SDS011;57680;54.292;18.598;2022-12-07T05:47:09;12.98;;;4.57;;
70270;SDS011;57680;54.292;18.598;2022-12-07T05:49:36;11.32;;;4.20;;
70270;SDS011;57680;54.292;18.598;2022-12-07T05:52:02;12.73;;;4.10;;
70270;SDS011;57680;54.292;18.598;2022-12-07T05:54:28;11.52;;;4.25;;
70270;SDS011;57680;54.292;18.598;2022-12-07T05:56:53;10.68;;;3.45;;
70270;SDS011;57680;54.292;18.598;2022-12-07T05:59:19;9.67;;;3.77;;
70270;SDS011;57680;54.292;18.598;2022-12-07T06:02:09;10.85;;;3.97;;
70270;SDS011;57680;54.292;18.598;2022-12-07T06:04:36;10.40;;;4.05;;
70270;SDS011;57680;54.292;18.598;2022-12-07T06:07:04;12.55;;;4.32;;
70270;SDS011;57680;54.292;18.598;2022-12-07T06:09:30;12.07;;;4.23;;
70270;SDS011;57680;54.292;18.598;2022-12-07T06:11:56;10.23;;;3.58;;
70270;SDS011;57680;54.292;18.598;2022-12-07T06:14:40;8.85;;;2.95;;
70270;SDS011;57680;54.292;18.598;2022-12-07T06:17:06;7.30;;;2.67;;
70270;SDS011;57680;54.292;18.598;2022-12-07T06:19:32;6.45;;;2.22;;
70270;SDS011;57680;54.292;18.598;2022-12-07T06:21:58;4.05;;;1.65;;
70270;SDS011;57680;54.292;18.598;2022-12-07T06:24:24;5.17;;;1.60;;
70270;SDS011;57680;54.292;18.598;2022-12-07T06:26:50;5.93;;;1.80;;
70270;SDS011;57680;54.292;18.598;2022-12-07T06:29:16;4.63;;;1.52;;
70270;SDS011;57680;54.292;18.598;2022-12-07T06:31:42;4.37;;;1.70;;
70270;SDS011;57680;54.292;18.598;2022-12-07T06:34:11;5.10;;;1.60;;
70270;SDS011;57680;54.292;18.598;2022-12-07T06:36:39;5.10;;;1.50;;
70270;SDS011;57680;54.292;18.598;2022-12-07T06:39:05;3.80;;;1.05;;
70270;SDS011;57680;54.292;18.598;2022-12-07T06:41:31;3.17;;;1.33;;
70270;SDS011;57680;54.292;18.598;2022-12-07T06:43:57;4.67;;;1.27;;
70270;SDS011;57680;54.292;18.598;2022-12-07T06:46:22;4.75;;;1.40;;
70270;SDS011;57680;54.292;18.598;2022-12-07T06:48:48;3.73;;;1.40;;
70270;SDS011;57680;54.292;18.598;2022-12-07T06:51:14;6.85;;;1.58;;
70270;SDS011;57680;54.292;18.598;2022-12-07T06:53:40;5.18;;;1.65;;
70270;SDS011;57680;54.292;18.598;2022-12-07T06:56:05;7.33;;;1.70;;
70270;SDS011;57680;54.292;18.598;2022-12-07T06:58:31;5.90;;;1.85;;
70270;SDS011;57680;54.292;18.598;2022-12-07T07:00:57;5.23;;;1.70;;
70270;SDS011;57680;54.292;18.598;2022-12-07T07:03:22;6.25;;;2.10;;
70270;SDS011;57680;54.292;18.598;2022-12-07T07:05:48;5.10;;;1.80;;
70270;SDS011;57680;54.292;18.598;2022-12-07T07:08:14;5.10;;;2.17;;
70270;SDS011;57680;54.292;18.598;2022-12-07T07:10:39;5.97;;;2.38;;
70270;SDS011;57680;54.292;18.598;2022-12-07T07:13:05;6.97;;;2.63;;
70270;SDS011;57680;54.292;18.598;2022-12-07T07:15:32;6.90;;;2.30;;
70270;SDS011;57680;54.292;18.598;2022-12-07T07:17:58;6.80;;;2.28;;
70270;SDS011;57680;54.292;18.598;2022-12-07T07:20:24;6.35;;;2.30;;
70270;SDS011;57680;54.292;18.598;2022-12-07T07:22:50;7.60;;;2.80;;
70270;SDS011;57680;54.292;18.598;2022-12-07T07:25:16;7.38;;;2.80;;
70270;SDS011;57680;54.292;18.598;2022-12-07T07:27:41;6.70;;;2.40;;
70270;SDS011;57680;54.292;18.598;2022-12-07T07:30:07;7.63;;;2.65;;
70270;SDS011;57680;54.292;18.598;2022-12-07T07:32:33;8.15;;;3.22;;
70270;SDS011;57680;54.292;18.598;2022-12-07T07:34:59;9.20;;;3.63;;
70270;SDS011;57680;54.292;18.598;2022-12-07T07:37:25;9.07;;;3.30;;
70270;SDS011;57680;54.292;18.598;2022-12-07T07:39:50;9.00;;;3.40;;
70270;SDS011;57680;54.292;18.598;2022-12-07T07:42:16;9.33;;;3.97;;
70270;SDS011;57680;54.292;18.598;2022-12-07T07:44:41;11.68;;;4.20;;
70270;SDS011;57680;54.292;18.598;2022-12-07T07:47:07;9.87;;;4.00;;
70270;SDS011;57680;54.292;18.598;2022-12-07T07:49:32;11.07;;;4.50;;
70270;SDS011;57680;54.292;18.598;2022-12-07T07:51:58;11.30;;;4.35;;
70270;SDS011;57680;54.292;18.598;2022-12-07T07:54:23;11.40;;;4.17;;
70270;SDS011;57680;54.292;18.598;2022-12-07T07:56:49;12.17;;;4.50;;
70270;SDS011;57680;54.292;18.598;2022-12-07T07:59:15;10.13;;;4.35;;
70270;SDS011;57680;54.292;18.598;2022-12-07T08:01:40;11.07;;;4.20;;
70270;SDS011;57680;54.292;18.598;2022-12-07T08:04:06;13.02;;;4.35;;
70270;SDS011;57680;54.292;18.598;2022-12-07T08:06:32;12.73;;;4.77;;
70270;SDS011;57680;54.292;18.598;2022-12-07T08:08:57;12.90;;;4.75;;
70270;SDS011;57680;54.292;18.598;2022-12-07T08:11:23;11.60;;;4.93;;
70270;SDS011;57680;54.292;18.598;2022-12-07T08:13:48;10.90;;;4.67;;
70270;SDS011;57680;54.292;18.598;2022-12-07T08:16:14;12.75;;;4.60;;
70270;SDS011;57680;54.292;18.598;2022-12-07T08:18:40;9.43;;;4.37;;
70270;SDS011;57680;54.292;18.598;2022-12-07T08:21:08;11.93;;;4.88;;
70270;SDS011;57680;54.292;18.598;2022-12-07T08:23:37;12.10;;;5.25;;
70270;SDS011;57680;54.292;18.598;2022-12-07T08:26:06;11.77;;;5.00;;
70270;SDS011;57680;54.292;18.598;2022-12-07T08:28:34;13.43;;;5.00;;
70270;SDS011;57680;54.292;18.598;2022-12-07T08:31:01;11.43;;;4.72;;
70270;SDS011;57680;54.292;18.598;2022-12-07T08:33:28;10.95;;;4.50;;
70270;SDS011;57680;54.292;18.598;2022-12-07T08:35:54;11.97;;;6.13;;
70270;SDS011;57680;54.292;18.598;2022-12-07T08:38:20;12.35;;;5.13;;
70270;SDS011;57680;54.292;18.598;2022-12-07T08:40:53;10.97;;;4.60;;
70270;SDS011;57680;54.292;18.598;2022-12-07T08:43:22;9.27;;;4.10;;
70270;SDS011;57680;54.292;18.598;2022-12-07T08:45:53;9.43;;;4.23;;
70270;SDS011;57680;54.292;18.598;2022-12-07T08:48:28;9.35;;;3.85;;
70270;SDS011;57680;54.292;18.598;2022-12-07T08:50:55;9.88;;;4.38;;
70270;SDS011;57680;54.292;18.598;2022-12-07T08:53:20;9.20;;;3.90;;
70270;SDS011;57680;54.292;18.598;2022-12-07T08:55:47;13.90;;;4.50;;
70270;SDS011;57680;54.292;18.598;2022-12-07T08:58:13;11.68;;;4.63;;
70270;SDS011;57680;54.292;18.598;2022-12-07T09:00:38;13.00;;;4.20;;
70270;SDS011;57680;54.292;18.598;2022-12-07T09:03:04;9.82;;;4.22;;
70270;SDS011;57680;54.292;18.598;2022-12-07T09:05:29;9.77;;;3.77;;
70270;SDS011;57680;54.292;18.598;2022-12-07T09:07:55;9.13;;;3.67;;
70270;SDS011;57680;54.292;18.598;2022-12-07T09:10:24;8.82;;;3.60;;
70270;SDS011;57680;54.292;18.598;2022-12-07T09:12:51;6.57;;;3.22;;
70270;SDS011;57680;54.292;18.598;2022-12-07T09:15:17;8.47;;;3.23;;
70270;SDS011;57680;54.292;18.598;2022-12-07T09:17:42;7.82;;;3.22;;
70270;SDS011;57680;54.292;18.598;2022-12-07T09:20:08;8.37;;;3.33;;
70270;SDS011;57680;54.292;18.598;2022-12-07T09:22:34;7.03;;;3.28;;
70270;SDS011;57680;54.292;18.598;2022-12-07T09:25:00;8.82;;;3.88;;
70270;SDS011;57680;54.292;18.598;2022-12-07T09:27:26;8.60;;;3.70;;
70270;SDS011;57680;54.292;18.598;2022-12-07T09:29:52;9.23;;;3.83;;
70270;SDS011;57680;54.292;18.598;2022-12-07T09:32:18;9.30;;;3.57;;
70270;SDS011;57680;54.292;18.598;2022-12-07T09:34:43;10.65;;;4.20;;
70270;SDS011;57680;54.292;18.598;2022-12-07T09:37:09;7.87;;;3.23;;
70270;SDS011;57680;54.292;18.598;2022-12-07T09:39:37;9.18;;;3.97;;
70270;SDS011;57680;54.292;18.598;2022-12-07T09:42:03;13.35;;;5.13;;
70270;SDS011;57680;54.292;18.598;2022-12-07T09:44:30;11.52;;;4.70;;
70270;SDS011;57680;54.292;18.598;2022-12-07T09:46:57;10.30;;;4.10;;
70270;SDS011;57680;54.292;18.598;2022-12-07T09:49:24;10.55;;;4.35;;
70270;SDS011;57680;54.292;18.598;2022-12-07T09:54:33;13.43;;;5.13;;
70270;SDS011;57680;54.292;18.598;2022-12-07T09:57:04;13.38;;;4.65;;
70270;SDS011;57680;54.292;18.598;2022-12-07T09:59:29;13.73;;;4.77;;
70270;SDS011;57680;54.292;18.598;2022-12-07T10:01:55;10.33;;;4.40;;
70270;SDS011;57680;54.292;18.598;2022-12-07T10:04:21;10.87;;;4.60;;
70270;SDS011;57680;54.292;18.598;2022-12-07T10:06:49;9.88;;;4.45;;
70270;SDS011;57680;54.292;18.598;2022-12-07T10:09:17;10.40;;;5.00;;
70270;SDS011;57680;54.292;18.598;2022-12-07T10:12:00;10.13;;;4.55;;
70270;SDS011;57680;54.292;18.598;2022-12-07T10:14:28;8.43;;;3.95;;
70270;SDS011;57680;54.292;18.598;2022-12-07T10:16:54;8.53;;;3.93;;
70270;SDS011;57680;54.292;18.598;2022-12-07T10:19:23;10.43;;;3.85;;
70270;SDS011;57680;54.292;18.598;2022-12-07T10:24:50;9.15;;;4.18;;
70270;SDS011;57680;54.292;18.598;2022-12-07T10:27:20;10.57;;;4.07;;
70270;SDS011;57680;54.292;18.598;2022-12-07T10:29:52;10.65;;;4.53;;
70270;SDS011;57680;54.292;18.598;2022-12-07T10:34:44;10.73;;;4.57;;
70270;SDS011;57680;54.292;18.598;2022-12-07T10:42:16;11.20;;;4.80;;
70270;SDS011;57680;54.292;18.598;2022-12-07T10:44:43;9.52;;;4.10;;
70270;SDS011;57680;54.292;18.598;2022-12-07T10:57:39;9.77;;;3.93;;
70270;SDS011;57680;54.292;18.598;2022-12-07T11:00:23;7.85;;;3.60;;
70270;SDS011;57680;54.292;18.598;2022-12-07T11:16:36;9.63;;;3.80;;
70270;SDS011;57680;54.292;18.598;2022-12-07T11:21:57;9.30;;;3.80;;
70270;SDS011;57680;54.292;18.598;2022-12-07T11:24:27;11.23;;;4.05;;
70270;SDS011;57680;54.292;18.598;2022-12-07T11:27:34;9.25;;;3.65;;
70270;SDS011;57680;54.292;18.598;2022-12-07T11:38:18;9.88;;;4.45;;
70270;SDS011;57680;54.292;18.598;2022-12-07T11:40:51;15.63;;;5.38;;
70270;SDS011;57680;54.292;18.598;2022-12-07T11:43:23;10.87;;;4.80;;
70270;SDS011;57680;54.292;18.598;2022-12-07T11:46:03;10.70;;;4.40;;
70270;SDS011;57680;54.292;18.598;2022-12-07T11:48:38;12.68;;;5.25;;
70270;SDS011;57680;54.292;18.598;2022-12-07T11:51:07;10.73;;;4.72;;
70270;SDS011;57680;54.292;18.598;2022-12-07T11:54:27;10.77;;;4.65;;
70270;SDS011;57680;54.292;18.598;2022-12-07T11:56:29;11.10;;;4.70;;
70270;SDS011;57680;54.292;18.598;2022-12-07T11:59:03;11.18;;;4.40;;
70270;SDS011;57680;54.292;18.598;2022-12-07T12:01:41;9.93;;;4.15;;
70270;SDS011;57680;54.292;18.598;2022-12-07T12:06:39;10.60;;;4.30;;
70270;SDS011;57680;54.292;18.598;2022-12-07T12:09:13;9.68;;;3.83;;
70270;SDS011;57680;54.292;18.598;2022-12-07T12:18:00;9.20;;;3.78;;
70270;SDS011;57680;54.292;18.598;2022-12-07T12:20:51;11.10;;;4.10;;
70270;SDS011;57680;54.292;18.598;2022-12-07T12:23:41;10.27;;;4.03;;
70270;SDS011;57680;54.292;18.598;2022-12-07T12:26:27;10.48;;;4.20;;
70270;SDS011;57680;54.292;18.598;2022-12-07T12:28:56;10.27;;;4.30;;
70270;SDS011;57680;54.292;18.598;2022-12-07T12:33:56;11.45;;;4.82;;
70270;SDS011;57680;54.292;18.598;2022-12-07T12:44:03;11.05;;;4.80;;
70270;SDS011;57680;54.292;18.598;2022-12-07T12:46:57;13.40;;;5.00;;
70270;SDS011;57680;54.292;18.598;2022-12-07T12:49:32;10.82;;;4.28;;
70270;SDS011;57680;54.292;18.598;2022-12-07T12:52:01;11.52;;;4.55;;
70270;SDS011;57680;54.292;18.598;2022-12-07T12:54:58;12.33;;;4.53;;
70270;SDS011;57680;54.292;18.598;2022-12-07T12:57:29;14.82;;;4.70;;
70270;SDS011;57680;54.292;18.598;2022-12-07T13:00:00;12.52;;;4.70;;
70270;SDS011;57680;54.292;18.598;2022-12-07T13:02:55;11.95;;;5.10;;
70270;SDS011;57680;54.292;18.598;2022-12-07T13:05:25;17.23;;;5.63;;
70270;SDS011;57680;54.292;18.598;2022-12-07T13:07:56;12.23;;;5.00;;
70270;SDS011;57680;54.292;18.598;2022-12-07T13:13:01;14.73;;;4.57;;
70270;SDS011;57680;54.292;18.598;2022-12-07T13:23:38;12.25;;;4.40;;
70270;SDS011;57680;54.292;18.598;2022-12-07T13:26:20;12.30;;;5.05;;
70270;SDS011;57680;54.292;18.598;2022-12-07T13:28:49;15.02;;;5.07;;
70270;SDS011;57680;54.292;18.598;2022-12-07T13:33:58;13.73;;;4.97;;
70270;SDS011;57680;54.292;18.598;2022-12-07T13:36:26;12.68;;;5.25;;
70270;SDS011;57680;54.292;18.598;2022-12-07T13:39:09;13.57;;;4.53;;
70270;SDS011;57680;54.292;18.598;2022-12-07T13:42:30;15.32;;;5.57;;
70270;SDS011;57680;54.292;18.598;2022-12-07T13:44:43;14.90;;;4.78;;
70270;SDS011;57680;54.292;18.598;2022-12-07T13:47:13;15.23;;;4.80;;
70270;SDS011;57680;54.292;18.598;2022-12-07T13:49:46;15.10;;;5.38;;
70270;SDS011;57680;54.292;18.598;2022-12-07T13:55:28;14.00;;;4.85;;
70270;SDS011;57680;54.292;18.598;2022-12-07T13:57:40;14.07;;;4.70;;
70270;SDS011;57680;54.292;18.598;2022-12-07T14:00:15;13.02;;;4.43;;
70270;SDS011;57680;54.292;18.598;2022-12-07T14:05:28;12.30;;;4.10;;
70270;SDS011;57680;54.292;18.598;2022-12-07T14:07:56;11.73;;;4.30;;
70270;SDS011;57680;54.292;18.598;2022-12-07T14:16:05;10.15;;;3.75;;
70270;SDS011;57680;54.292;18.598;2022-12-07T14:18:56;12.37;;;3.80;;
70270;SDS011;57680;54.292;18.598;2022-12-07T14:21:24;11.70;;;3.85;;
70270;SDS011;57680;54.292;18.598;2022-12-07T14:26:49;12.50;;;4.20;;
70270;SDS011;57680;54.292;18.598;2022-12-07T14:31:54;12.73;;;3.90;;
70270;SDS011;57680;54.292;18.598;2022-12-07T14:34:21;13.18;;;4.00;;
70270;SDS011;57680;54.292;18.598;2022-12-07T14:36:48;10.65;;;3.85;;
70270;SDS011;57680;54.292;18.598;2022-12-07T14:39:14;9.23;;;3.60;;
70270;SDS011;57680;54.292;18.598;2022-12-07T14:41:39;10.23;;;3.30;;
70270;SDS011;57680;54.292;18.598;2022-12-07T14:44:21;10.57;;;3.63;;
70270;SDS011;57680;54.292;18.598;2022-12-07T14:46:48;10.48;;;3.65;;
70270;SDS011;57680;54.292;18.598;2022-12-07T14:49:14;11.10;;;4.03;;
70270;SDS011;57680;54.292;18.598;2022-12-07T14:51:40;12.55;;;4.13;;
70270;SDS011;57680;54.292;18.598;2022-12-07T14:54:11;12.48;;;4.13;;
70270;SDS011;57680;54.292;18.598;2022-12-07T14:56:40;10.30;;;3.90;;
70270;SDS011;57680;54.292;18.598;2022-12-07T14:59:07;8.70;;;3.10;;
70270;SDS011;57680;54.292;18.598;2022-12-07T15:01:33;11.65;;;3.50;;
70270;SDS011;57680;54.292;18.598;2022-12-07T15:03:59;10.53;;;3.60;;
70270;SDS011;57680;54.292;18.598;2022-12-07T15:06:24;8.73;;;3.80;;
70270;SDS011;57680;54.292;18.598;2022-12-07T15:08:50;9.30;;;3.13;;
70270;SDS011;57680;54.292;18.598;2022-12-07T15:11:16;10.23;;;3.67;;
70270;SDS011;57680;54.292;18.598;2022-12-07T15:13:42;11.32;;;3.70;;
70270;SDS011;57680;54.292;18.598;2022-12-07T15:16:27;10.80;;;3.80;;
70270;SDS011;57680;54.292;18.598;2022-12-07T15:18:52;9.90;;;4.43;;
70270;SDS011;57680;54.292;18.598;2022-12-07T15:21:18;9.97;;;3.40;;
70270;SDS011;57680;54.292;18.598;2022-12-07T15:23:43;11.00;;;3.30;;
70270;SDS011;57680;54.292;18.598;2022-12-07T15:26:10;8.33;;;2.97;;
70270;SDS011;57680;54.292;18.598;2022-12-07T15:28:36;8.77;;;2.72;;
70270;SDS011;57680;54.292;18.598;2022-12-07T15:31:02;7.27;;;2.70;;
70270;SDS011;57680;54.292;18.598;2022-12-07T15:33:27;6.85;;;2.70;;
70270;SDS011;57680;54.292;18.598;2022-12-07T15:35:53;10.13;;;3.60;;
70270;SDS011;57680;54.292;18.598;2022-12-07T15:38:18;8.03;;;3.03;;
70270;SDS011;57680;54.292;18.598;2022-12-07T15:40:47;7.82;;;3.25;;
70270;SDS011;57680;54.292;18.598;2022-12-07T15:43:13;7.45;;;3.22;;
70270;SDS011;57680;54.292;18.598;2022-12-07T15:46:04;8.43;;;2.87;;
70270;SDS011;57680;54.292;18.598;2022-12-07T15:48:30;7.63;;;2.80;;
70270;SDS011;57680;54.292;18.598;2022-12-07T15:51:05;9.70;;;3.10;;
70270;SDS011;57680;54.292;18.598;2022-12-07T15:53:32;9.75;;;3.55;;
70270;SDS011;57680;54.292;18.598;2022-12-07T15:55:58;9.00;;;3.10;;
70270;SDS011;57680;54.292;18.598;2022-12-07T15:58:24;9.80;;;3.40;;
70270;SDS011;57680;54.292;18.598;2022-12-07T16:00:50;7.47;;;2.90;;
70270;SDS011;57680;54.292;18.598;2022-12-07T16:03:15;7.60;;;3.00;;
70270;SDS011;57680;54.292;18.598;2022-12-07T16:05:41;8.77;;;3.57;;
70270;SDS011;57680;54.292;18.598;2022-12-07T16:08:06;7.82;;;3.08;;
70270;SDS011;57680;54.292;18.598;2022-12-07T16:10:32;7.87;;;2.73;;
70270;SDS011;57680;54.292;18.598;2022-12-07T16:12:58;9.82;;;3.58;;
70270;SDS011;57680;54.292;18.598;2022-12-07T16:15:23;6.63;;;3.10;;
70270;SDS011;57680;54.292;18.598;2022-12-07T16:17:50;8.60;;;3.00;;
70270;SDS011;57680;54.292;18.598;2022-12-07T16:20:16;8.07;;;3.15;;
70270;SDS011;57680;54.292;18.598;2022-12-07T16:22:42;9.07;;;3.23;;
70270;SDS011;57680;54.292;18.598;2022-12-07T16:25:08;17.25;;;3.40;;
70270;SDS011;57680;54.292;18.598;2022-12-07T16:27:34;8.83;;;2.60;;
70270;SDS011;57680;54.292;18.598;2022-12-07T16:30:00;7.53;;;3.15;;
70270;SDS011;57680;54.292;18.598;2022-12-07T16:32:25;6.97;;;3.07;;
70270;SDS011;57680;54.292;18.598;2022-12-07T16:34:51;6.88;;;3.15;;
70270;SDS011;57680;54.292;18.598;2022-12-07T16:37:16;7.47;;;3.10;;
70270;SDS011;57680;54.292;18.598;2022-12-07T16:39:42;7.13;;;2.90;;
70270;SDS011;57680;54.292;18.598;2022-12-07T16:42:07;8.93;;;2.83;;
70270;SDS011;57680;54.292;18.598;2022-12-07T16:44:33;7.43;;;2.33;;